sensor_id;sensor_type;location;lat;lon;timestamp;P1;durP1;ratioP1;P2;durP2;ratioP2
3911;SDS011;1971;51.778;10.330;2022-10-16T00:00:42;2.00;;;1.90;;
3911;SDS011;1971;51.778;10.330;2022-10-16T00:03:15;2.50;;;2.20;;
3911;SDS011;1971;51.778;10.330;2022-10-16T00:05:46;2.30;;;2.10;;
3911;SDS011;1971;51.778;10.330;2022-10-16T00:08:19;2.60;;;2.10;;
3911;SDS011;1971;51.778;10.330;2022-10-16T00:10:49;2.30;;;2.20;;
3911;SDS011;1971;51.778;10.330;2022-10-16T00:13:20;2.93;;;2.40;;
3911;SDS011;1971;51.778;10.330;2022-10-16T00:15:50;3.70;;;2.13;;
3911;SDS011;1971;51.778;10.330;2022-10-16T00:18:24;2.90;;;2.00;;
3911;SDS011;1971;51.778;10.330;2022-10-16T00:20:54;4.00;;;1.97;;
3911;SDS011;1971;51.778;10.330;2022-10-16T00:23:27;2.10;;;2.00;;
3911;SDS011;1971;51.778;10.330;2022-10-16T00:25:59;7.60;;;2.77;;
3911;SDS011;1971;51.778;10.330;2022-10-16T00:28:31;2.80;;;2.60;;
3911;SDS011;1971;51.778;10.330;2022-10-16T00:31:04;3.97;;;2.60;;
3911;SDS011;1971;51.778;10.330;2022-10-16T00:33:35;3.10;;;2.80;;
3911;SDS011;1971;51.778;10.330;2022-10-16T00:36:09;4.20;;;3.90;;
3911;SDS011;1971;51.778;10.330;2022-10-16T00:38:44;4.57;;;4.27;;
3911;SDS011;1971;51.778;10.330;2022-10-16T00:41:15;5.17;;;4.77;;
3911;SDS011;1971;51.778;10.330;2022-10-16T00:43:47;4.77;;;4.47;;
3911;SDS011;1971;51.778;10.330;2022-10-16T00:46:19;5.27;;;4.87;;
3911;SDS011;1971;51.778;10.330;2022-10-16T00:48:51;5.27;;;4.77;;
3911;SDS011;1971;51.778;10.330;2022-10-16T00:51:30;5.50;;;5.10;;
3911;SDS011;1971;51.778;10.330;2022-10-16T00:54:08;7.00;;;6.50;;
3911;SDS011;1971;51.778;10.330;2022-10-16T00:56:41;6.73;;;6.23;;
3911;SDS011;1971;51.778;10.330;2022-10-16T00:59:14;6.87;;;6.20;;
3911;SDS011;1971;51.778;10.330;2022-10-16T01:01:46;6.50;;;5.93;;
3911;SDS011;1971;51.778;10.330;2022-10-16T01:04:16;7.80;;;6.63;;
3911;SDS011;1971;51.778;10.330;2022-10-16T01:06:48;7.10;;;6.60;;
3911;SDS011;1971;51.778;10.330;2022-10-16T01:09:30;6.07;;;5.57;;
3911;SDS011;1971;51.778;10.330;2022-10-16T01:12:08;6.13;;;5.73;;
3911;SDS011;1971;51.778;10.330;2022-10-16T01:14:45;7.33;;;6.83;;
3911;SDS011;1971;51.778;10.330;2022-10-16T01:17:23;6.27;;;5.87;;
3911;SDS011;1971;51.778;10.330;2022-10-16T01:20:03;6.40;;;5.87;;
3911;SDS011;1971;51.778;10.330;2022-10-16T01:22:43;5.43;;;5.03;;
3911;SDS011;1971;51.778;10.330;2022-10-16T01:25:24;5.40;;;5.07;;
3911;SDS011;1971;51.778;10.330;2022-10-16T01:28:02;4.57;;;4.27;;
3911;SDS011;1971;51.778;10.330;2022-10-16T01:30:36;5.13;;;4.80;;
3911;SDS011;1971;51.778;10.330;2022-10-16T01:33:10;6.10;;;5.27;;
3911;SDS011;1971;51.778;10.330;2022-10-16T01:35:45;4.87;;;4.57;;
3911;SDS011;1971;51.778;10.330;2022-10-16T01:38:21;4.37;;;4.07;;
3911;SDS011;1971;51.778;10.330;2022-10-16T01:40:57;4.50;;;4.20;;
3911;SDS011;1971;51.778;10.330;2022-10-16T01:43:35;5.20;;;4.80;;
3911;SDS011;1971;51.778;10.330;2022-10-16T01:46:08;4.83;;;4.53;;
3911;SDS011;1971;51.778;10.330;2022-10-16T01:48:42;4.30;;;4.00;;
3911;SDS011;1971;51.778;10.330;2022-10-16T01:51:13;4.93;;;4.53;;
3911;SDS011;1971;51.778;10.330;2022-10-16T01:53:47;4.87;;;4.50;;
3911;SDS011;1971;51.778;10.330;2022-10-16T01:56:20;5.53;;;5.13;;
3911;SDS011;1971;51.778;10.330;2022-10-16T01:58:55;5.73;;;5.33;;
3911;SDS011;1971;51.778;10.330;2022-10-16T02:01:30;5.90;;;5.50;;
3911;SDS011;1971;51.778;10.330;2022-10-16T02:04:07;6.90;;;6.33;;
3911;SDS011;1971;51.778;10.330;2022-10-16T02:06:41;7.53;;;6.93;;
3911;SDS011;1971;51.778;10.330;2022-10-16T02:09:12;7.53;;;6.93;;
3911;SDS011;1971;51.778;10.330;2022-10-16T02:11:43;7.57;;;6.97;;
3911;SDS011;1971;51.778;10.330;2022-10-16T02:14:18;8.37;;;6.70;;
3911;SDS011;1971;51.778;10.330;2022-10-16T02:16:52;7.73;;;7.00;;
3911;SDS011;1971;51.778;10.330;2022-10-16T02:19:22;7.33;;;6.80;;
3911;SDS011;1971;51.778;10.330;2022-10-16T02:21:54;7.53;;;7.00;;
3911;SDS011;1971;51.778;10.330;2022-10-16T02:24:28;8.00;;;7.40;;
3911;SDS011;1971;51.778;10.330;2022-10-16T02:27:05;7.07;;;6.57;;
3911;SDS011;1971;51.778;10.330;2022-10-16T02:29:42;8.60;;;8.00;;
3911;SDS011;1971;51.778;10.330;2022-10-16T02:32:17;8.37;;;7.67;;
3911;SDS011;1971;51.778;10.330;2022-10-16T02:34:53;8.10;;;7.50;;
3911;SDS011;1971;51.778;10.330;2022-10-16T02:37:24;8.00;;;7.40;;
3911;SDS011;1971;51.778;10.330;2022-10-16T02:39:56;8.17;;;7.57;;
3911;SDS011;1971;51.778;10.330;2022-10-16T02:42:31;8.20;;;7.50;;
3911;SDS011;1971;51.778;10.330;2022-10-16T02:45:07;7.30;;;6.80;;
3911;SDS011;1971;51.778;10.330;2022-10-16T02:47:39;7.90;;;7.30;;
3911;SDS011;1971;51.778;10.330;2022-10-16T02:50:09;6.30;;;5.90;;
3911;SDS011;1971;51.778;10.330;2022-10-16T02:52:40;6.97;;;6.47;;
3911;SDS011;1971;51.778;10.330;2022-10-16T02:55:10;7.50;;;6.90;;
3911;SDS011;1971;51.778;10.330;2022-10-16T02:57:40;7.93;;;7.13;;
3911;SDS011;1971;51.778;10.330;2022-10-16T03:00:15;7.20;;;6.70;;
3911;SDS011;1971;51.778;10.330;2022-10-16T03:02:46;7.27;;;6.77;;
3911;SDS011;1971;51.778;10.330;2022-10-16T03:05:17;7.47;;;6.83;;
3911;SDS011;1971;51.778;10.330;2022-10-16T03:07:48;6.63;;;6.23;;
3911;SDS011;1971;51.778;10.330;2022-10-16T03:10:19;7.50;;;6.87;;
3911;SDS011;1971;51.778;10.330;2022-10-16T03:12:50;7.70;;;7.10;;
3911;SDS011;1971;51.778;10.330;2022-10-16T03:15:23;8.43;;;7.70;;
3911;SDS011;1971;51.778;10.330;2022-10-16T03:17:55;7.83;;;7.23;;
3911;SDS011;1971;51.778;10.330;2022-10-16T03:20:27;8.63;;;8.00;;
3911;SDS011;1971;51.778;10.330;2022-10-16T03:22:58;9.50;;;8.10;;
3911;SDS011;1971;51.778;10.330;2022-10-16T03:25:29;7.30;;;6.80;;
3911;SDS011;1971;51.778;10.330;2022-10-16T03:28:01;9.17;;;8.37;;
3911;SDS011;1971;51.778;10.330;2022-10-16T03:30:34;6.77;;;6.30;;
3911;SDS011;1971;51.778;10.330;2022-10-16T03:33:06;8.13;;;7.53;;
3911;SDS011;1971;51.778;10.330;2022-10-16T03:35:36;7.23;;;6.73;;
3911;SDS011;1971;51.778;10.330;2022-10-16T03:38:07;7.07;;;6.47;;
3911;SDS011;1971;51.778;10.330;2022-10-16T03:40:37;7.00;;;6.53;;
3911;SDS011;1971;51.778;10.330;2022-10-16T03:43:07;6.80;;;6.30;;
3911;SDS011;1971;51.778;10.330;2022-10-16T03:45:41;7.13;;;6.57;;
3911;SDS011;1971;51.778;10.330;2022-10-16T03:48:12;6.57;;;5.97;;
3911;SDS011;1971;51.778;10.330;2022-10-16T03:50:42;6.17;;;5.67;;
3911;SDS011;1971;51.778;10.330;2022-10-16T03:53:13;6.37;;;5.83;;
3911;SDS011;1971;51.778;10.330;2022-10-16T03:55:44;5.93;;;5.53;;
3911;SDS011;1971;51.778;10.330;2022-10-16T03:58:15;5.50;;;5.00;;
3911;SDS011;1971;51.778;10.330;2022-10-16T04:00:49;5.53;;;5.13;;
3911;SDS011;1971;51.778;10.330;2022-10-16T04:03:20;5.67;;;5.10;;
3911;SDS011;1971;51.778;10.330;2022-10-16T04:05:50;6.83;;;6.10;;
3911;SDS011;1971;51.778;10.330;2022-10-16T04:08:20;6.20;;;5.80;;
3911;SDS011;1971;51.778;10.330;2022-10-16T04:10:50;6.40;;;5.90;;
3911;SDS011;1971;51.778;10.330;2022-10-16T04:13:22;6.70;;;6.20;;
3911;SDS011;1971;51.778;10.330;2022-10-16T04:15:55;7.60;;;6.90;;
3911;SDS011;1971;51.778;10.330;2022-10-16T04:18:26;6.80;;;6.30;;
3911;SDS011;1971;51.778;10.330;2022-10-16T04:20:56;7.30;;;6.70;;
3911;SDS011;1971;51.778;10.330;2022-10-16T04:23:31;7.50;;;7.00;;
3911;SDS011;1971;51.778;10.330;2022-10-16T04:26:02;7.47;;;6.87;;
3911;SDS011;1971;51.778;10.330;2022-10-16T04:28:35;8.43;;;7.67;;
3911;SDS011;1971;51.778;10.330;2022-10-16T04:31:09;8.53;;;7.83;;
3911;SDS011;1971;51.778;10.330;2022-10-16T04:33:41;8.27;;;7.17;;
3911;SDS011;1971;51.778;10.330;2022-10-16T04:36:11;7.67;;;7.17;;
3911;SDS011;1971;51.778;10.330;2022-10-16T04:38:42;7.90;;;7.40;;
3911;SDS011;1971;51.778;10.330;2022-10-16T04:41:12;8.20;;;7.47;;
3911;SDS011;1971;51.778;10.330;2022-10-16T04:43:42;7.20;;;6.70;;
3911;SDS011;1971;51.778;10.330;2022-10-16T04:46:15;7.23;;;6.80;;
3911;SDS011;1971;51.778;10.330;2022-10-16T04:48:45;7.97;;;7.40;;
3911;SDS011;1971;51.778;10.330;2022-10-16T04:51:15;7.67;;;7.17;;
3911;SDS011;1971;51.778;10.330;2022-10-16T04:53:45;6.90;;;6.40;;
3911;SDS011;1971;51.778;10.330;2022-10-16T04:56:15;7.47;;;7.07;;
3911;SDS011;1971;51.778;10.330;2022-10-16T04:58:45;7.87;;;7.27;;
3911;SDS011;1971;51.778;10.330;2022-10-16T05:01:18;8.03;;;7.33;;
3911;SDS011;1971;51.778;10.330;2022-10-16T05:03:49;8.30;;;7.50;;
3911;SDS011;1971;51.778;10.330;2022-10-16T05:06:19;8.40;;;7.57;;
3911;SDS011;1971;51.778;10.330;2022-10-16T05:08:49;7.43;;;6.60;;
3911;SDS011;1971;51.778;10.330;2022-10-16T05:11:19;7.80;;;7.30;;
3911;SDS011;1971;51.778;10.330;2022-10-16T05:13:50;7.90;;;7.30;;
3911;SDS011;1971;51.778;10.330;2022-10-16T05:16:24;7.53;;;7.03;;
3911;SDS011;1971;51.778;10.330;2022-10-16T05:18:54;7.40;;;6.90;;
3911;SDS011;1971;51.778;10.330;2022-10-16T05:21:44;8.23;;;7.63;;
3911;SDS011;1971;51.778;10.330;2022-10-16T05:24:15;8.30;;;7.60;;
3911;SDS011;1971;51.778;10.330;2022-10-16T05:26:45;7.70;;;7.20;;
3911;SDS011;1971;51.778;10.330;2022-10-16T05:29:16;8.63;;;7.83;;
3911;SDS011;1971;51.778;10.330;2022-10-16T05:31:49;7.47;;;6.97;;
3911;SDS011;1971;51.778;10.330;2022-10-16T05:34:20;7.70;;;7.10;;
3911;SDS011;1971;51.778;10.330;2022-10-16T05:36:50;8.10;;;7.17;;
3911;SDS011;1971;51.778;10.330;2022-10-16T05:39:20;8.30;;;7.80;;
3911;SDS011;1971;51.778;10.330;2022-10-16T05:41:51;7.80;;;7.20;;
3911;SDS011;1971;51.778;10.330;2022-10-16T05:44:21;7.70;;;7.20;;
3911;SDS011;1971;51.778;10.330;2022-10-16T05:46:54;7.97;;;7.30;;
3911;SDS011;1971;51.778;10.330;2022-10-16T05:49:24;7.63;;;7.03;;
3911;SDS011;1971;51.778;10.330;2022-10-16T05:51:54;6.90;;;6.40;;
3911;SDS011;1971;51.778;10.330;2022-10-16T05:54:24;8.10;;;7.40;;
3911;SDS011;1971;51.778;10.330;2022-10-16T05:56:54;7.03;;;6.53;;
3911;SDS011;1971;51.778;10.330;2022-10-16T05:59:25;8.07;;;7.47;;
3911;SDS011;1971;51.778;10.330;2022-10-16T06:01:58;8.07;;;7.47;;
3911;SDS011;1971;51.778;10.330;2022-10-16T06:04:29;8.67;;;8.07;;
3911;SDS011;1971;51.778;10.330;2022-10-16T06:06:59;7.50;;;6.83;;
3911;SDS011;1971;51.778;10.330;2022-10-16T06:09:30;8.13;;;6.90;;
3911;SDS011;1971;51.778;10.330;2022-10-16T06:12:00;7.27;;;6.77;;
3911;SDS011;1971;51.778;10.330;2022-10-16T06:14:31;7.60;;;6.93;;
3911;SDS011;1971;51.778;10.330;2022-10-16T06:17:05;6.33;;;5.93;;
3911;SDS011;1971;51.778;10.330;2022-10-16T06:19:35;7.60;;;7.00;;
3911;SDS011;1971;51.778;10.330;2022-10-16T06:22:06;7.40;;;6.80;;
3911;SDS011;1971;51.778;10.330;2022-10-16T06:24:36;7.53;;;6.90;;
3911;SDS011;1971;51.778;10.330;2022-10-16T06:27:06;7.07;;;6.57;;
3911;SDS011;1971;51.778;10.330;2022-10-16T06:29:37;7.37;;;6.87;;
3911;SDS011;1971;51.778;10.330;2022-10-16T06:32:10;7.07;;;6.67;;
3911;SDS011;1971;51.778;10.330;2022-10-16T06:34:40;7.27;;;6.57;;
3911;SDS011;1971;51.778;10.330;2022-10-16T06:37:09;5.90;;;5.50;;
3911;SDS011;1971;51.778;10.330;2022-10-16T06:39:40;6.50;;;6.10;;
3911;SDS011;1971;51.778;10.330;2022-10-16T06:42:10;6.37;;;5.97;;
3911;SDS011;1971;51.778;10.330;2022-10-16T06:44:40;6.67;;;5.17;;
3911;SDS011;1971;51.778;10.330;2022-10-16T06:47:13;5.80;;;5.40;;
3911;SDS011;1971;51.778;10.330;2022-10-16T06:49:44;6.03;;;5.40;;
3911;SDS011;1971;51.778;10.330;2022-10-16T06:52:20;5.50;;;5.20;;
3911;SDS011;1971;51.778;10.330;2022-10-16T06:54:51;5.60;;;5.20;;
3911;SDS011;1971;51.778;10.330;2022-10-16T06:57:21;5.00;;;4.60;;
3911;SDS011;1971;51.778;10.330;2022-10-16T06:59:51;5.00;;;4.60;;
3911;SDS011;1971;51.778;10.330;2022-10-16T07:02:23;5.10;;;4.73;;
3911;SDS011;1971;51.778;10.330;2022-10-16T07:04:55;4.50;;;4.20;;
3911;SDS011;1971;51.778;10.330;2022-10-16T07:07:24;4.93;;;4.30;;
3911;SDS011;1971;51.778;10.330;2022-10-16T07:09:55;4.23;;;3.93;;
3911;SDS011;1971;51.778;10.330;2022-10-16T07:12:25;4.60;;;4.40;;
3911;SDS011;1971;51.778;10.330;2022-10-16T07:14:56;3.80;;;3.60;;
3911;SDS011;1971;51.778;10.330;2022-10-16T07:17:28;4.20;;;3.90;;
3911;SDS011;1971;51.778;10.330;2022-10-16T07:19:59;4.00;;;3.80;;
3911;SDS011;1971;51.778;10.330;2022-10-16T07:22:29;4.37;;;4.17;;
3911;SDS011;1971;51.778;10.330;2022-10-16T07:24:59;4.07;;;3.80;;
3911;SDS011;1971;51.778;10.330;2022-10-16T07:27:29;4.30;;;4.00;;
3911;SDS011;1971;51.778;10.330;2022-10-16T07:30:00;3.27;;;3.07;;
3911;SDS011;1971;51.778;10.330;2022-10-16T07:32:37;3.93;;;3.63;;
3911;SDS011;1971;51.778;10.330;2022-10-16T07:35:08;3.87;;;3.57;;
3911;SDS011;1971;51.778;10.330;2022-10-16T07:37:38;3.77;;;3.53;;
3911;SDS011;1971;51.778;10.330;2022-10-16T07:40:09;3.93;;;3.73;;
3911;SDS011;1971;51.778;10.330;2022-10-16T07:42:39;4.13;;;3.93;;
3911;SDS011;1971;51.778;10.330;2022-10-16T07:45:10;4.17;;;3.80;;
3911;SDS011;1971;51.778;10.330;2022-10-16T07:47:42;4.03;;;3.80;;
3911;SDS011;1971;51.778;10.330;2022-10-16T07:50:13;3.73;;;3.53;;
3911;SDS011;1971;51.778;10.330;2022-10-16T07:52:43;3.47;;;3.27;;
3911;SDS011;1971;51.778;10.330;2022-10-16T07:55:13;3.63;;;3.40;;
3911;SDS011;1971;51.778;10.330;2022-10-16T07:57:44;4.10;;;3.80;;
3911;SDS011;1971;51.778;10.330;2022-10-16T08:00:14;4.07;;;3.77;;
3911;SDS011;1971;51.778;10.330;2022-10-16T08:02:48;4.60;;;4.30;;
3911;SDS011;1971;51.778;10.330;2022-10-16T08:05:18;3.60;;;3.40;;
3911;SDS011;1971;51.778;10.330;2022-10-16T08:07:49;3.90;;;3.60;;
3911;SDS011;1971;51.778;10.330;2022-10-16T08:10:21;3.90;;;3.70;;
3911;SDS011;1971;51.778;10.330;2022-10-16T08:12:52;4.17;;;3.87;;
3911;SDS011;1971;51.778;10.330;2022-10-16T08:15:23;3.90;;;3.30;;
3911;SDS011;1971;51.778;10.330;2022-10-16T08:18:00;4.20;;;3.90;;
3911;SDS011;1971;51.778;10.330;2022-10-16T08:20:31;3.73;;;3.53;;
3911;SDS011;1971;51.778;10.330;2022-10-16T08:23:02;3.63;;;3.37;;
3911;SDS011;1971;51.778;10.330;2022-10-16T08:25:34;3.73;;;3.43;;
3911;SDS011;1971;51.778;10.330;2022-10-16T08:28:08;2.73;;;2.53;;
3911;SDS011;1971;51.778;10.330;2022-10-16T08:30:40;2.70;;;2.50;;
3911;SDS011;1971;51.778;10.330;2022-10-16T08:33:13;3.30;;;3.10;;
3911;SDS011;1971;51.778;10.330;2022-10-16T08:35:49;3.13;;;2.77;;
3911;SDS011;1971;51.778;10.330;2022-10-16T08:38:20;2.83;;;2.63;;
3911;SDS011;1971;51.778;10.330;2022-10-16T08:40:50;2.47;;;2.37;;
3911;SDS011;1971;51.778;10.330;2022-10-16T08:43:31;3.17;;;2.83;;
3911;SDS011;1971;51.778;10.330;2022-10-16T08:46:19;2.17;;;1.90;;
3911;SDS011;1971;51.778;10.330;2022-10-16T08:49:01;2.33;;;2.00;;
3911;SDS011;1971;51.778;10.330;2022-10-16T08:51:32;1.90;;;1.80;;
3911;SDS011;1971;51.778;10.330;2022-10-16T08:54:14;8.13;;;3.50;;
3911;SDS011;1971;51.778;10.330;2022-10-16T08:56:53;1.87;;;1.77;;
3911;SDS011;1971;51.778;10.330;2022-10-16T08:59:26;1.80;;;1.70;;
3911;SDS011;1971;51.778;10.330;2022-10-16T09:01:56;1.60;;;1.50;;
3911;SDS011;1971;51.778;10.330;2022-10-16T09:04:40;1.40;;;1.33;;
3911;SDS011;1971;51.778;10.330;2022-10-16T09:07:23;1.20;;;1.10;;
3911;SDS011;1971;51.778;10.330;2022-10-16T09:10:02;1.40;;;1.30;;
3911;SDS011;1971;51.778;10.330;2022-10-16T09:12:43;4.10;;;1.20;;
3911;SDS011;1971;51.778;10.330;2022-10-16T09:15:24;3.90;;;1.00;;
3911;SDS011;1971;51.778;10.330;2022-10-16T09:18:02;1.40;;;1.13;;
3911;SDS011;1971;51.778;10.330;2022-10-16T09:20:44;1.17;;;1.07;;
3911;SDS011;1971;51.778;10.330;2022-10-16T09:23:19;1.70;;;1.60;;
3911;SDS011;1971;51.778;10.330;2022-10-16T09:25:54;2.20;;;1.27;;
3911;SDS011;1971;51.778;10.330;2022-10-16T09:28:27;1.00;;;1.00;;
3911;SDS011;1971;51.778;10.330;2022-10-16T09:30:57;1.40;;;1.30;;
3911;SDS011;1971;51.778;10.330;2022-10-16T09:33:28;0.90;;;0.90;;
3911;SDS011;1971;51.778;10.330;2022-10-16T09:36:05;2.30;;;1.03;;
3911;SDS011;1971;51.778;10.330;2022-10-16T09:38:36;2.10;;;1.17;;
3911;SDS011;1971;51.778;10.330;2022-10-16T09:41:12;1.00;;;1.00;;
3911;SDS011;1971;51.778;10.330;2022-10-16T09:43:47;1.50;;;1.40;;
3911;SDS011;1971;51.778;10.330;2022-10-16T09:46:22;1.33;;;1.23;;
3911;SDS011;1971;51.778;10.330;2022-10-16T09:48:56;1.30;;;1.20;;
3911;SDS011;1971;51.778;10.330;2022-10-16T09:51:31;1.63;;;1.27;;
3911;SDS011;1971;51.778;10.330;2022-10-16T09:54:12;1.10;;;1.00;;
3911;SDS011;1971;51.778;10.330;2022-10-16T09:56:44;1.60;;;1.30;;
3911;SDS011;1971;51.778;10.330;2022-10-16T09:59:19;1.77;;;1.10;;
3911;SDS011;1971;51.778;10.330;2022-10-16T10:01:52;1.10;;;1.10;;
3911;SDS011;1971;51.778;10.330;2022-10-16T10:04:25;0.93;;;0.90;;
3911;SDS011;1971;51.778;10.330;2022-10-16T10:07:14;1.07;;;1.07;;
3911;SDS011;1971;51.778;10.330;2022-10-16T10:09:53;3.43;;;1.00;;
3911;SDS011;1971;51.778;10.330;2022-10-16T10:12:26;1.53;;;1.00;;
3911;SDS011;1971;51.778;10.330;2022-10-16T10:15:03;3.00;;;1.40;;
3911;SDS011;1971;51.778;10.330;2022-10-16T10:17:44;0.67;;;0.67;;
3911;SDS011;1971;51.778;10.330;2022-10-16T10:20:21;2.30;;;1.53;;
3911;SDS011;1971;51.778;10.330;2022-10-16T10:22:56;1.20;;;1.20;;
3911;SDS011;1971;51.778;10.330;2022-10-16T10:25:31;2.63;;;1.20;;
3911;SDS011;1971;51.778;10.330;2022-10-16T10:28:19;1.07;;;1.07;;
3911;SDS011;1971;51.778;10.330;2022-10-16T10:31:00;1.30;;;1.20;;
3911;SDS011;1971;51.778;10.330;2022-10-16T10:33:36;1.10;;;1.00;;
3911;SDS011;1971;51.778;10.330;2022-10-16T10:36:14;1.10;;;1.10;;
3911;SDS011;1971;51.778;10.330;2022-10-16T10:39:07;1.07;;;0.97;;
3911;SDS011;1971;51.778;10.330;2022-10-16T10:41:54;1.40;;;1.30;;
3911;SDS011;1971;51.778;10.330;2022-10-16T10:44:54;1.47;;;1.37;;
3911;SDS011;1971;51.778;10.330;2022-10-16T10:47:42;1.67;;;1.20;;
3911;SDS011;1971;51.778;10.330;2022-10-16T10:50:23;0.70;;;0.70;;
3911;SDS011;1971;51.778;10.330;2022-10-16T10:52:59;2.90;;;0.90;;
3911;SDS011;1971;51.778;10.330;2022-10-16T10:55:45;1.47;;;1.37;;
3911;SDS011;1971;51.778;10.330;2022-10-16T11:01:13;1.23;;;0.77;;
3911;SDS011;1971;51.778;10.330;2022-10-16T11:03:51;3.00;;;0.77;;
3911;SDS011;1971;51.778;10.330;2022-10-16T11:06:42;0.80;;;0.80;;
3911;SDS011;1971;51.778;10.330;2022-10-16T11:09:17;0.70;;;0.67;;
3911;SDS011;1971;51.778;10.330;2022-10-16T11:11:54;0.70;;;0.70;;
3911;SDS011;1971;51.778;10.330;2022-10-16T11:14:30;0.90;;;0.60;;
3911;SDS011;1971;51.778;10.330;2022-10-16T11:17:05;0.80;;;0.70;;
3911;SDS011;1971;51.778;10.330;2022-10-16T11:19:41;1.57;;;1.07;;
3911;SDS011;1971;51.778;10.330;2022-10-16T11:22:16;1.17;;;0.83;;
3911;SDS011;1971;51.778;10.330;2022-10-16T11:24:53;0.90;;;0.77;;
3911;SDS011;1971;51.778;10.330;2022-10-16T11:27:34;2.20;;;0.53;;
3911;SDS011;1971;51.778;10.330;2022-10-16T11:30:12;0.90;;;0.80;;
3911;SDS011;1971;51.778;10.330;2022-10-16T11:32:50;2.70;;;1.00;;
3911;SDS011;1971;51.778;10.330;2022-10-16T11:35:29;1.87;;;0.63;;
3911;SDS011;1971;51.778;10.330;2022-10-16T11:38:09;0.93;;;0.70;;
3911;SDS011;1971;51.778;10.330;2022-10-16T11:40:45;0.60;;;0.60;;
3911;SDS011;1971;51.778;10.330;2022-10-16T11:43:24;1.17;;;0.90;;
3911;SDS011;1971;51.778;10.330;2022-10-16T11:45:57;2.03;;;0.97;;
3911;SDS011;1971;51.778;10.330;2022-10-16T11:48:36;1.00;;;0.70;;
3911;SDS011;1971;51.778;10.330;2022-10-16T11:51:13;2.00;;;1.20;;
3911;SDS011;1971;51.778;10.330;2022-10-16T11:53:46;0.70;;;0.47;;
3911;SDS011;1971;51.778;10.330;2022-10-16T11:56:29;0.67;;;0.57;;
3911;SDS011;1971;51.778;10.330;2022-10-16T11:59:04;3.63;;;0.90;;
3911;SDS011;1971;51.778;10.330;2022-10-16T12:01:40;0.80;;;0.60;;
3911;SDS011;1971;51.778;10.330;2022-10-16T12:04:15;2.03;;;1.80;;
3911;SDS011;1971;51.778;10.330;2022-10-16T12:06:52;0.90;;;0.60;;
3911;SDS011;1971;51.778;10.330;2022-10-16T12:09:27;1.50;;;0.60;;
3911;SDS011;1971;51.778;10.330;2022-10-16T12:12:00;3.43;;;0.70;;
3911;SDS011;1971;51.778;10.330;2022-10-16T12:14:37;1.63;;;0.60;;
3911;SDS011;1971;51.778;10.330;2022-10-16T12:17:34;2.10;;;0.60;;
3911;SDS011;1971;51.778;10.330;2022-10-16T12:20:22;0.63;;;0.50;;
3911;SDS011;1971;51.778;10.330;2022-10-16T12:22:58;1.00;;;0.70;;
3911;SDS011;1971;51.778;10.330;2022-10-16T12:25:31;2.20;;;0.50;;
3911;SDS011;1971;51.778;10.330;2022-10-16T12:28:03;4.10;;;0.50;;
3911;SDS011;1971;51.778;10.330;2022-10-16T12:30:37;0.60;;;0.50;;
3911;SDS011;1971;51.778;10.330;2022-10-16T12:33:16;2.80;;;0.80;;
3911;SDS011;1971;51.778;10.330;2022-10-16T12:35:52;1.33;;;0.80;;
3911;SDS011;1971;51.778;10.330;2022-10-16T12:38:25;3.23;;;0.60;;
3911;SDS011;1971;51.778;10.330;2022-10-16T12:40:58;1.73;;;0.60;;
3911;SDS011;1971;51.778;10.330;2022-10-16T12:43:38;0.60;;;0.50;;
3911;SDS011;1971;51.778;10.330;2022-10-16T12:46:33;1.00;;;0.70;;
3911;SDS011;1971;51.778;10.330;2022-10-16T12:49:23;1.43;;;0.60;;
3911;SDS011;1971;51.778;10.330;2022-10-16T12:52:00;1.57;;;0.50;;
3911;SDS011;1971;51.778;10.330;2022-10-16T12:54:31;0.67;;;0.53;;
3911;SDS011;1971;51.778;10.330;2022-10-16T12:57:09;3.00;;;1.30;;
3911;SDS011;1971;51.778;10.330;2022-10-16T13:00:02;1.43;;;0.50;;
3911;SDS011;1971;51.778;10.330;2022-10-16T13:02:48;1.43;;;0.50;;
3911;SDS011;1971;51.778;10.330;2022-10-16T13:05:44;1.23;;;0.70;;
3911;SDS011;1971;51.778;10.330;2022-10-16T13:08:28;1.13;;;0.70;;
3911;SDS011;1971;51.778;10.330;2022-10-16T13:11:26;1.23;;;0.70;;
3911;SDS011;1971;51.778;10.330;2022-10-16T13:14:18;1.77;;;0.60;;
3911;SDS011;1971;51.778;10.330;2022-10-16T13:17:03;1.90;;;0.93;;
3911;SDS011;1971;51.778;10.330;2022-10-16T13:19:42;2.40;;;0.50;;
3911;SDS011;1971;51.778;10.330;2022-10-16T13:22:20;0.77;;;0.60;;
3911;SDS011;1971;51.778;10.330;2022-10-16T13:24:58;1.67;;;0.67;;
3911;SDS011;1971;51.778;10.330;2022-10-16T13:27:40;1.33;;;0.60;;
3911;SDS011;1971;51.778;10.330;2022-10-16T13:30:19;0.90;;;0.60;;
3911;SDS011;1971;51.778;10.330;2022-10-16T13:32:58;0.90;;;0.57;;
3911;SDS011;1971;51.778;10.330;2022-10-16T13:35:33;2.50;;;0.60;;
3911;SDS011;1971;51.778;10.330;2022-10-16T13:38:05;0.90;;;0.50;;
3911;SDS011;1971;51.778;10.330;2022-10-16T13:40:49;1.00;;;0.40;;
3911;SDS011;1971;51.778;10.330;2022-10-16T13:43:22;0.70;;;0.60;;
3911;SDS011;1971;51.778;10.330;2022-10-16T13:45:56;1.43;;;0.63;;
3911;SDS011;1971;51.778;10.330;2022-10-16T13:48:28;0.80;;;0.80;;
3911;SDS011;1971;51.778;10.330;2022-10-16T13:51:05;4.10;;;0.60;;
3911;SDS011;1971;51.778;10.330;2022-10-16T13:53:41;2.10;;;1.00;;
3911;SDS011;1971;51.778;10.330;2022-10-16T13:56:13;0.50;;;0.40;;
3911;SDS011;1971;51.778;10.330;2022-10-16T13:58:44;0.60;;;0.60;;
3911;SDS011;1971;51.778;10.330;2022-10-16T14:01:16;0.70;;;0.50;;
3911;SDS011;1971;51.778;10.330;2022-10-16T14:03:47;1.43;;;0.60;;
3911;SDS011;1971;51.778;10.330;2022-10-16T14:06:22;1.77;;;0.50;;
3911;SDS011;1971;51.778;10.330;2022-10-16T14:08:54;1.00;;;0.53;;
3911;SDS011;1971;51.778;10.330;2022-10-16T14:11:28;3.43;;;0.50;;
3911;SDS011;1971;51.778;10.330;2022-10-16T14:13:59;0.80;;;0.70;;
3911;SDS011;1971;51.778;10.330;2022-10-16T14:16:30;0.80;;;0.60;;
3911;SDS011;1971;51.778;10.330;2022-10-16T14:19:02;1.33;;;0.40;;
3911;SDS011;1971;51.778;10.330;2022-10-16T14:21:39;0.90;;;0.50;;
3911;SDS011;1971;51.778;10.330;2022-10-16T14:24:10;0.80;;;0.60;;
3911;SDS011;1971;51.778;10.330;2022-10-16T14:26:42;0.60;;;0.50;;
3911;SDS011;1971;51.778;10.330;2022-10-16T14:29:14;0.87;;;0.60;;
3911;SDS011;1971;51.778;10.330;2022-10-16T14:31:54;1.43;;;0.50;;
3911;SDS011;1971;51.778;10.330;2022-10-16T14:34:26;2.83;;;1.03;;
3911;SDS011;1971;51.778;10.330;2022-10-16T14:37:05;3.87;;;0.60;;
3911;SDS011;1971;51.778;10.330;2022-10-16T14:39:38;0.50;;;0.50;;
3911;SDS011;1971;51.778;10.330;2022-10-16T14:42:11;1.27;;;0.60;;
3911;SDS011;1971;51.778;10.330;2022-10-16T14:44:46;1.90;;;0.60;;
3911;SDS011;1971;51.778;10.330;2022-10-16T14:47:22;0.80;;;0.50;;
3911;SDS011;1971;51.778;10.330;2022-10-16T14:49:55;1.30;;;0.50;;
3911;SDS011;1971;51.778;10.330;2022-10-16T14:52:28;0.70;;;0.70;;
3911;SDS011;1971;51.778;10.330;2022-10-16T14:54:59;1.67;;;0.50;;
3911;SDS011;1971;51.778;10.330;2022-10-16T14:57:30;1.00;;;0.67;;
3911;SDS011;1971;51.778;10.330;2022-10-16T15:00:09;0.60;;;0.50;;
3911;SDS011;1971;51.778;10.330;2022-10-16T15:02:44;2.30;;;0.60;;
3911;SDS011;1971;51.778;10.330;2022-10-16T15:05:16;1.50;;;0.57;;
3911;SDS011;1971;51.778;10.330;2022-10-16T15:07:51;1.23;;;0.60;;
3911;SDS011;1971;51.778;10.330;2022-10-16T15:10:23;0.90;;;0.60;;
3911;SDS011;1971;51.778;10.330;2022-10-16T15:12:55;0.80;;;0.50;;
3911;SDS011;1971;51.778;10.330;2022-10-16T15:15:27;0.90;;;0.60;;
3911;SDS011;1971;51.778;10.330;2022-10-16T15:18:02;0.90;;;0.50;;
3911;SDS011;1971;51.778;10.330;2022-10-16T15:20:34;3.13;;;0.50;;
3911;SDS011;1971;51.778;10.330;2022-10-16T15:23:10;1.57;;;0.50;;
3911;SDS011;1971;51.778;10.330;2022-10-16T15:25:44;0.80;;;0.67;;
3911;SDS011;1971;51.778;10.330;2022-10-16T15:28:15;2.50;;;0.70;;
3911;SDS011;1971;51.778;10.330;2022-10-16T15:30:46;3.53;;;0.80;;
3911;SDS011;1971;51.778;10.330;2022-10-16T15:33:19;0.80;;;0.60;;
3911;SDS011;1971;51.778;10.330;2022-10-16T15:35:54;1.17;;;0.73;;
3911;SDS011;1971;51.778;10.330;2022-10-16T15:38:27;5.10;;;0.80;;
3911;SDS011;1971;51.778;10.330;2022-10-16T15:40:57;0.60;;;0.60;;
3911;SDS011;1971;51.778;10.330;2022-10-16T15:43:28;0.80;;;0.60;;
3911;SDS011;1971;51.778;10.330;2022-10-16T15:45:59;0.80;;;0.60;;